Terminal Aerodrome Forecast
Issued by NWS Wilmington, OH

Current Version | Previous Version | Graphics & Text | Print | Product List | Glossary On
Versions: 1 2 3 4 5 6 7 8 9 10 11 12 13 14 15 16 17 18 19 20 21 22 23 24 25 26 27
000
FTUS41 KILN 221259 AAA
TAFCVG
TAF AMD
KCVG 221259Z 2213/2318 22012G18KT P6SM BKN120
     FM221600 24012G19KT P6SM SHRA VCTS BKN050CB
      TEMPO 2217/2220 4SM TSRA OVC025CB
     FM222000 25012G21KT 6SM SHRA VCTS OVC050CB
     FM230100 30008KT P6SM BKN035
     FM230500 33008KT P6SM SCT045
     FM230700 34007KT P6SM SCT250=

USA.gov is the U.S. government's official web portal to all federal, state and local government web resources and services.